• Join FlightAware (Why Join?)
  • Login
  • US Flag 
08:15PM EDT


 

Airport Tracker/Info


-or-


 

Live Flight TrackerFlight Track Log ✈ AWE3418 ✈ 15-Apr-2013 ✈ KPHL - KMHT

Flight Track Log - Related Links

Times and Time Zones

All times are in EDT time to prevent confusion due to time zone crossing. See the AWE3418 flight status page for this flight to view local times or setup timezone preferences in your user account.

Time Position Orientation Groundspeed Altitude Reporting Facility
EDT Latitude Longitude Course Direction KTS MPH feet Rate Location/Type
07:42PM 39.8747 -75.2222 37° Northeast 148 170 1,000  Level FAA TRACON SMA TRACON (SMA)
07:43PM 39.8731 -75.2072 98° East 148 170 1,600 1,800 Climbing FAA TRACON SMA TRACON (SMA)
07:43PM 39.8631 -75.1881 124° Southeast 181 208 2,200 2,220 Climbing FAA TRACON SMA TRACON (SMA)
07:43PM 39.8486 -75.1750 145° Southeast 209 241 3,100 3,000 Climbing FAA TRACON SMA TRACON (SMA)
07:44PM 39.8308 -75.1603 148° Southeast 211 243 4,200 3,960 Climbing FAA TRACON SMA TRACON (SMA)
07:44PM 39.8142 -75.1450 145° Southeast 219 252 5,700 4,140 Climbing FAA TRACON SMA TRACON (SMA)
07:44PM 39.7986 -75.1300 143° Southeast 220 253 6,900 3,180 Climbing FAA TRACON SMA TRACON (SMA)
07:45PM 39.8122 -74.8442 105° East  Level FlightAware Approximate
07:45PM 39.7836 -75.1153 143° Southeast 221 254 7,900  Level FAA TRACON SMA TRACON (SMA)
07:45PM 39.7681 -75.0975 139° Southeast 250 288 8,800 3,660 Climbing FAA TRACON SMA TRACON (SMA)
07:45PM 39.7628 -75.0650 102° East 254 292 10,300 2,700 Climbing FAA TRACON SMA TRACON (SMA)
07:46PM 39.7925 -74.7459 105° East  Level FlightAware Approximate
07:46PM 39.7650 -75.0369 84° East 262 302 10,600  Level FAA TRACON SMA TRACON (SMA)
07:46PM 39.7683 -75.0028 83° East 303 349 11,200 1,980 Climbing FAA TRACON SMA TRACON (SMA)
07:46PM 39.7722 -74.9622 83° East 304 350 11,900 1,320 Climbing FAA TRACON SMA TRACON (SMA)
07:47PM 39.8163 -74.6671 37° Northeast  Level FlightAware Approximate
07:47PM 39.7756 -74.9242 83° East 338 389 12,100  Level FAA TRACON SMA TRACON (SMA)
07:47PM 39.7786 -74.8861 84° East 342 394 13,500 3,120 Climbing FAA TRACON SMA TRACON (SMA)
07:47PM 39.7828 -74.8414 83° East 346 398 14,200 2,400 Climbing FAA TRACON SMA TRACON (SMA)
07:48PM 39.7864 -74.7992 84° East 355 409 15,100 2,880 Climbing FAA TRACON SMA TRACON (SMA)
07:48PM 39.7911 -74.7492 83° East 363 418 16,200 3,060 Climbing FAA TRACON SMA TRACON (SMA)
07:48PM 39.8042 -74.7131 65° Northeast 361 415 17,200 2,400 Climbing FAA TRACON SMA TRACON (SMA)
07:49PM 39.8242 -74.6864 46° Northeast 344 396 17,800 1,200 Climbing FAA TRACON SMA TRACON (SMA)
07:49PM 39.8306 -74.6803 36° Northeast 348 400 18,000 2,280 Climbing FAA TRACON SMA TRACON (SMA)
07:51PM 40.0453 -74.4694 37° Northeast 368 423 24,000 2,040 Climbing New York Center
07:52PM 40.1311 -74.3844 37° Northeast 381 438 25,000 1,260 Climbing New York Center
07:53PM 40.2258 -74.2886 38° Northeast 398 458 26,500 960 Climbing New York Center
07:54PM 40.3261 -74.2067 32° Northeast 411 473 27,000 120 Climbing New York Center
07:56PM 40.5219 -74.1683 North 391 450 27,000  Level Boston Center
07:57PM 40.6328 -74.1492 North 396 456 27,000  Level Boston Center
07:58PM 40.7456 -74.1358 North 401 461 27,000  Level Boston Center
07:59PM 40.8561 -74.1194 North 401 461 27,000  Level Boston Center
08:00PM 40.9689 -74.1003 North 407 468 27,000  Level Boston Center
08:01PM 41.0797 -74.0811 North 407 468 27,000  Level Boston Center
08:02PM 41.1903 -74.0647 North 407 468 27,000  Level Boston Center
08:03PM 41.2947 -74.0453 North 407 468 27,000  Level Boston Center
08:04PM 41.4161 -74.0261 North 407 468 27,000  Level Boston Center
08:05PM 41.5247 -74.0094 North 407 468 27,000  Level Boston Center
08:06PM 41.6375 -73.9900 North 407 468 27,000  Level Boston Center
08:07PM 41.7503 -73.9706 North 407 468 27,000  Level Boston Center
08:08PM 41.8567 -73.9564 North 402 463 27,000  Level Boston Center
08:09PM 41.9592 -73.9364 North 402 463 27,000  Level Boston Center
08:10PM 42.0822 -73.9200 North 402 463 27,000 -1,200 Level Boston Center
08:11PM 42.1833 -73.8439 29° Northeast 402 463 24,700 -1,560 Descending Boston Center
08:12PM 42.2619 -73.7108 51° Northeast 393 452 24,000 -1,200 Descending Boston Center
08:13PM 42.3011 -73.5600 71° East 399 459 22,300 -1,740 Descending Boston Center
08:14PM 42.3544 -73.4261 62° Northeast 410 472 20,500 -1,680 Descending Boston Center
08:15PM 42.4056 -73.2892 63° Northeast 392 451 19,000 -780 Descending Boston Center
08:16PM 42.4628 -73.1436 62° Northeast 392 451 19,000  Level Boston Center
08:17PM 42.5114 -73.0258 61° Northeast 392 451 19,000  Level Boston Center
08:18PM 42.5706 -72.8742 62° Northeast 392 451 19,000  Level Boston Center
08:19PM 42.6189 -72.7392 64° Northeast 392 451 19,000 -720 Level Boston Center
08:20PM 42.6567 -72.5981 70° East 392 451 17,600 -1,800 Descending Boston Center
08:21PM 42.6922 -72.4569 71° East 392 451 15,500 -2,100 Descending Boston Center
08:22PM 42.7256 -72.3242 71° East 385 443 13,400 -1,800 Descending Boston Center
08:23PM 42.7442 -72.2364 74° East 363 418 11,900 -1,740 Descending Boston Center
08:24PM 42.7833 -72.0836 71° East 332 382 10,000 -1,500 Descending Boston Center
08:25PM 42.8081 -71.9789 72° East 297 342 9,000 -1,140 Descending Boston Center
08:26PM 42.8575 -71.8964 51° Northeast 275 316 7,800 -1,680 Descending Boston Center
08:27PM 42.9261 -71.8503 26° Northeast 260 299 5,700 -1,440 Descending Boston Center
08:28PM 42.9947 -71.8042 26° Northeast 265 305 5,000 -840 Descending Boston Center
08:29PM 43.0611 -71.7581 27° Northeast 270 311 4,100 -600 Descending Boston Center
08:30PM 43.0856 -71.6753 68° East 237 273 3,800 -540 Descending Boston Center
08:31PM 43.0853 -71.6128 90° East 205 236 3,100 -840 Descending Boston Center
08:32PM 43.0681 -71.5419 108° East 184 212 2,200 -900 Descending Boston Center